Time;durP1;ratioP1;P1;durP2;ratioP2;P2;SDS_P1;SDS_P2;PMS_P1;PMS_P2;Temp;Humidity;BMP_temperature;BMP_pressure;BME280_temperature;BME280_humidity;BME280_pressure;Samples;Min_cycle;Max_cycle;Signal;HPM_P1;HPM_P2
2024/01/01 00:00:13;;;;;;;11.25;9.05;;;20.80;38.20;;;;;;5008499;28;20026;-60
2024/01/01 00:02:39;;;;;;;10.70;8.63;;;20.80;38.20;;;;;;5001817;28;20034;-59
2024/01/01 00:05:06;;;;;;;10.27;8.15;;;20.80;38.20;;;;;;5003115;28;20026;-59
2024/01/01 00:07:32;;;;;;;11.40;8.43;;;20.80;38.20;;;;;;5002521;28;20353;-56
2024/01/01 00:09:58;;;;;;;11.15;7.85;;;20.70;38.20;;;;;;5006640;28;20040;-59
2024/01/01 00:12:24;;;;;;;10.25;7.78;;;20.70;38.10;;;;;;5003578;28;20089;-59
2024/01/01 00:14:50;;;;;;;10.30;7.82;;;20.70;38.10;;;;;;5007715;28;20030;-58
2024/01/01 00:17:15;;;;;;;9.23;7.22;;;20.70;38.10;;;;;;5003850;28;20026;-59
2024/01/01 00:19:41;;;;;;;9.70;7.50;;;20.70;38.10;;;;;;5005070;28;20508;-60
2024/01/01 00:22:07;;;;;;;9.25;7.10;;;20.70;38.80;;;;;;5008762;28;20115;-60
2024/01/01 00:24:33;;;;;;;8.82;6.38;;;20.70;38.10;;;;;;5002420;28;20037;-59
2024/01/01 00:26:59;;;;;;;7.47;6.05;;;20.70;38.10;;;;;;5003515;28;20029;-60
2024/01/01 00:29:25;;;;;;;8.35;5.93;;;20.60;38.10;;;;;;5004838;28;20061;-57
2024/01/01 00:31:51;;;;;;;7.88;5.63;;;20.60;38.00;;;;;;5001297;28;20030;-61
2024/01/01 00:34:17;;;;;;;7.15;5.00;;;20.60;38.10;;;;;;5003963;28;20049;-58
2024/01/01 00:36:43;;;;;;;6.13;5.20;;;20.70;38.10;;;;;;5007371;28;20124;-59
2024/01/01 00:39:09;;;;;;;7.43;5.47;;;20.60;38.10;;;;;;4984166;28;20374;-58
2024/01/01 00:41:38;;;;;;;9.93;5.47;;;20.60;38.10;;;;;;5008084;28;20381;-59
2024/01/01 00:44:05;;;;;;;6.25;3.90;;;20.60;38.10;;;;;;5008631;28;20018;-59
2024/01/01 00:46:31;;;;;;;5.80;4.20;;;20.60;38.10;;;;;;5007250;28;20026;-60
2024/01/01 00:48:57;;;;;;;6.82;4.95;;;20.60;38.10;;;;;;5002904;28;20045;-58
2024/01/01 00:51:23;;;;;;;5.60;3.92;;;20.60;38.10;;;;;;5004478;28;20121;-58
2024/01/01 00:53:49;;;;;;;5.72;3.88;;;20.60;38.10;;;;;;5004919;28;20022;-58
2024/01/01 00:56:15;;;;;;;7.05;4.30;;;20.60;38.10;;;;;;5007519;28;20076;-57
2024/01/01 00:58:41;;;;;;;4.78;3.70;;;20.50;38.00;;;;;;5004564;28;20389;-58
2024/01/01 01:01:07;;;;;;;5.50;3.78;;;20.50;38.00;;;;;;5007214;28;20456;-58
2024/01/01 01:03:36;;;;;;;5.60;3.70;;;20.50;38.00;;;;;;5000036;28;20022;-59
2024/01/01 01:06:03;;;;;;;5.07;3.70;;;20.50;38.00;;;;;;5005509;28;20072;-59
2024/01/01 01:08:29;;;;;;;5.05;3.40;;;20.50;38.00;;;;;;5003863;28;20499;-58
2024/01/01 01:10:55;;;;;;;5.93;3.55;;;20.50;38.00;;;;;;5001585;28;20054;-58
2024/01/01 01:13:21;;;;;;;3.63;3.15;;;20.50;38.00;;;;;;5007011;28;20053;-60
2024/01/01 01:15:47;;;;;;;4.15;3.33;;;20.50;38.00;;;;;;5004895;28;20025;-59
2024/01/01 01:18:13;;;;;;;4.82;3.15;;;20.50;38.00;;;;;;5000045;28;20479;-60
2024/01/01 01:20:39;;;;;;;3.55;2.85;;;20.50;37.90;;;;;;5001209;28;20037;-60
2024/01/01 01:23:05;;;;;;;4.28;2.92;;;20.50;37.90;;;;;;4999153;28;20026;-57
2024/01/01 01:25:31;;;;;;;4.35;2.40;;;20.50;37.90;;;;;;5004002;28;20041;-59
2024/01/01 01:27:57;;;;;;;3.85;2.58;;;20.50;37.80;;;;;;5000952;28;20103;-59
2024/01/01 01:30:24;;;;;;;3.30;1.98;;;20.50;37.80;;;;;;5001093;28;20411;-59
2024/01/01 01:32:50;;;;;;;4.00;2.50;;;20.50;37.80;;;;;;5006593;28;20049;-59
2024/01/01 01:35:16;;;;;;;3.60;2.42;;;20.50;37.70;;;;;;5008266;28;20033;-59
2024/01/01 01:37:43;;;;;;;3.17;2.10;;;20.60;38.30;;;;;;5007679;28;20037;-59
2024/01/01 01:40:09;;;;;;;3.35;1.95;;;20.50;37.60;;;;;;5000985;28;20368;-56
2024/01/01 01:42:35;;;;;;;3.22;2.28;;;20.50;37.60;;;;;;5009049;28;20026;-59
2024/01/01 01:45:02;;;;;;;4.05;2.35;;;20.50;37.60;;;;;;5005115;28;20036;-59
2024/01/01 01:47:29;;;;;;;4.18;2.42;;;20.50;37.60;;;;;;5003010;28;20041;-58
2024/01/01 01:49:55;;;;;;;3.75;2.15;;;20.50;37.50;;;;;;5005309;28;20112;-58
2024/01/01 01:52:22;;;;;;;3.47;2.10;;;20.60;37.50;;;;;;4998731;28;20125;-58
2024/01/01 01:54:50;;;;;;;2.25;1.55;;;20.60;37.50;;;;;;5003348;28;20037;-58
2024/01/01 01:57:16;;;;;;;3.58;2.00;;;20.60;37.50;;;;;;4999592;28;20037;-57
2024/01/01 01:59:43;;;;;;;2.80;1.95;;;20.60;37.50;;;;;;5002932;28;20041;-58
2024/01/01 02:02:10;;;;;;;3.47;2.05;;;20.50;37.40;;;;;;4999837;28;20061;-56
2024/01/01 02:04:36;;;;;;;2.38;1.60;;;20.50;37.40;;;;;;5005557;28;20357;-58
2024/01/01 02:07:02;;;;;;;2.53;1.63;;;20.50;37.40;;;;;;4999983;28;20050;-58
2024/01/01 02:09:30;;;;;;;2.40;1.70;;;20.60;37.40;;;;;;5003942;28;20065;-57
2024/01/01 02:11:56;;;;;;;1.85;1.63;;;20.60;37.40;;;;;;5001817;28;20092;-59
2024/01/01 02:14:23;;;;;;;2.88;1.80;;;20.50;37.40;;;;;;5005890;28;20045;-56
2024/01/01 02:16:50;;;;;;;3.40;1.60;;;20.50;37.30;;;;;;5001232;28;20049;-59
2024/01/01 02:19:26;;;;;;;2.00;1.40;;;20.60;37.40;;;;;;5006813;28;20128;-58
2024/01/01 02:21:53;;;;;;;1.55;1.20;;;20.60;37.40;;;;;;5002830;28;20099;-58
2024/01/01 02:24:20;;;;;;;1.83;1.17;;;20.50;37.30;;;;;;4994673;28;20048;-59
2024/01/01 02:26:47;;;;;;;1.80;1.25;;;20.60;37.40;;;;;;5008410;28;20037;-54
2024/01/01 02:29:13;;;;;;;1.48;1.10;;;20.60;37.30;;;;;;5008287;28;20041;-59
2024/01/01 02:31:39;;;;;;;2.03;1.30;;;20.50;37.30;;;;;;5006523;28;20509;-56
2024/01/01 02:34:05;;;;;;;4.55;1.48;;;20.50;37.30;;;;;;5012339;28;20027;-56
2024/01/01 02:36:39;;;;;;;2.72;1.30;;;20.60;37.30;;;;;;5009180;28;20112;-56
2024/01/01 02:39:06;;;;;;;2.72;1.70;;;20.50;37.30;;;;;;5002675;28;20026;-58
2024/01/01 02:41:35;;;;;;;2.13;1.50;;;20.50;37.30;;;;;;5009725;28;20037;-57
2024/01/01 02:44:03;;;;;;;1.83;1.30;;;20.50;37.30;;;;;;5002855;28;20093;-56
2024/01/01 02:46:29;;;;;;;2.60;1.20;;;20.50;37.30;;;;;;5009716;28;20030;-56
2024/01/01 02:48:54;;;;;;;2.00;1.40;;;20.50;37.30;;;;;;5008004;28;20416;-59
2024/01/01 02:51:20;;;;;;;2.03;1.20;;;20.50;37.30;;;;;;5008247;28;20030;-58
2024/01/01 02:53:46;;;;;;;2.05;1.33;;;20.50;37.30;;;;;;5004982;28;20050;-57
2024/01/01 02:56:19;;;;;;;2.15;1.10;;;20.50;37.40;;;;;;5005910;28;20026;-58
2024/01/01 02:58:46;;;;;;;1.85;1.02;;;20.50;37.40;;;;;;5009071;28;20026;-59
2024/01/01 03:01:12;;;;;;;2.13;1.08;;;20.50;37.50;;;;;;5007272;28;20037;-59
2024/01/01 03:03:38;;;;;;;1.38;1.00;;;20.50;37.50;;;;;;5003225;28;20015;-57
2024/01/01 03:06:06;;;;;;;2.38;1.30;;;20.50;37.50;;;;;;5011653;28;20343;-58
2024/01/01 03:08:32;;;;;;;2.08;0.95;;;20.50;37.50;;;;;;5008267;28;20033;-60
2024/01/01 03:10:58;;;;;;;2.42;1.25;;;20.50;37.60;;;;;;5005910;28;20038;-58
2024/01/01 03:13:24;;;;;;;1.67;1.00;;;20.50;37.60;;;;;;5007734;28;20400;-58
2024/01/01 03:15:50;;;;;;;4.45;1.10;;;20.50;37.60;;;;;;5004377;28;20045;-59
2024/01/01 03:18:17;;;;;;;2.67;1.15;;;20.50;38.30;;;;;;5002969;28;20104;-59
2024/01/01 03:20:43;;;;;;;1.92;0.82;;;20.50;37.70;;;;;;4996357;28;20026;-59
2024/01/01 03:23:09;;;;;;;1.30;0.80;;;20.50;37.70;;;;;;4988872;28;20027;-56
2024/01/01 03:25:35;;;;;;;2.63;1.10;;;20.50;37.70;;;;;;5005552;28;20067;-57
2024/01/01 03:28:00;;;;;;;1.67;0.93;;;20.50;37.80;;;;;;4985422;28;20465;-58
2024/01/01 03:30:26;;;;;;;2.15;1.08;;;20.50;38.40;;;;;;5008224;28;20094;-58
2024/01/01 03:32:52;;;;;;;1.30;0.90;;;20.50;37.80;;;;;;5007396;28;20033;-59
2024/01/01 03:35:19;;;;;;;2.30;0.90;;;20.50;37.80;;;;;;5009103;28;20129;-60
2024/01/01 03:37:45;;;;;;;1.15;0.57;;;20.50;37.80;;;;;;5007206;28;20026;-57
2024/01/01 03:40:12;;;;;;;2.28;0.98;;;20.50;37.90;;;;;;5009529;28;20026;-58
2024/01/01 03:42:38;;;;;;;1.92;0.90;;;20.50;37.90;;;;;;5008910;28;20109;-58
2024/01/01 03:45:05;;;;;;;1.92;1.05;;;20.50;37.90;;;;;;5007535;28;20062;-60
2024/01/01 03:47:32;;;;;;;1.08;0.80;;;20.40;37.90;;;;;;5007714;28;20022;-57
2024/01/01 03:49:58;;;;;;;1.45;0.90;;;20.40;37.90;;;;;;5004653;28;20042;-58
2024/01/01 03:52:25;;;;;;;3.20;1.00;;;20.50;37.90;;;;;;5006128;28;20030;-59
2024/01/01 03:54:53;;;;;;;1.75;0.90;;;20.40;37.90;;;;;;5010082;28;20030;-59
2024/01/01 03:57:20;;;;;;;1.30;0.70;;;20.40;37.90;;;;;;5003866;28;20045;-59
2024/01/01 03:59:45;;;;;;;1.67;0.75;;;20.40;37.90;;;;;;5008150;28;20042;-59
2024/01/01 04:02:11;;;;;;;2.50;1.00;;;20.40;37.90;;;;;;5010201;28;20030;-59
2024/01/01 04:04:37;;;;;;;1.80;0.70;;;20.40;37.90;;;;;;5007020;28;20061;-57
2024/01/01 04:07:03;;;;;;;2.72;1.13;;;20.40;37.90;;;;;;5009168;28;20068;-60
2024/01/01 04:09:29;;;;;;;2.17;0.88;;;20.40;37.90;;;;;;4997598;28;20065;-57
2024/01/01 04:11:55;;;;;;;2.17;1.00;;;20.40;37.90;;;;;;5001794;28;20042;-58
2024/01/01 04:14:21;;;;;;;1.15;0.60;;;20.40;37.90;;;;;;5008296;28;20099;-57
2024/01/01 04:16:46;;;;;;;2.38;1.10;;;20.40;38.00;;;;;;5004358;28;20029;-57
2024/01/01 04:19:12;;;;;;;1.17;0.70;;;20.40;38.00;;;;;;5004039;28;20027;-60
2024/01/01 04:21:39;;;;;;;2.40;0.82;;;20.40;38.00;;;;;;5009411;28;20048;-54
2024/01/01 04:24:06;;;;;;;2.33;0.82;;;20.40;38.00;;;;;;5005650;28;20079;-59
2024/01/01 04:26:32;;;;;;;1.92;0.73;;;20.40;38.00;;;;;;4994016;28;20046;-59
2024/01/01 04:28:58;;;;;;;2.00;0.73;;;20.40;38.00;;;;;;4999003;28;20112;-58
2024/01/01 04:31:24;;;;;;;1.50;0.70;;;20.40;38.00;;;;;;5009413;28;20022;-56
2024/01/01 04:33:49;;;;;;;2.88;1.10;;;20.40;38.00;;;;;;5006375;28;20029;-58
2024/01/01 04:36:15;;;;;;;2.40;0.90;;;20.40;38.00;;;;;;5006425;28;20032;-60
2024/01/01 04:38:41;;;;;;;2.08;1.02;;;20.40;38.00;;;;;;5005539;28;20022;-59
2024/01/01 04:41:09;;;;;;;3.65;0.75;;;20.40;38.00;;;;;;5003375;28;20338;-55
2024/01/01 04:43:35;;;;;;;2.50;0.95;;;20.40;38.00;;;;;;5007533;28;20033;-58
2024/01/01 04:46:01;;;;;;;1.02;0.50;;;20.40;38.00;;;;;;5003231;28;20022;-58
2024/01/01 04:48:27;;;;;;;1.67;0.60;;;20.40;38.00;;;;;;5006631;28;20035;-56
2024/01/01 04:50:53;;;;;;;1.48;0.80;;;20.40;38.00;;;;;;5002705;28;20428;-55
2024/01/01 04:53:18;;;;;;;1.52;0.60;;;20.40;38.00;;;;;;5008907;28;20014;-59
2024/01/01 04:55:44;;;;;;;1.83;0.70;;;20.40;38.00;;;;;;5007529;28;20109;-58
2024/01/01 04:58:10;;;;;;;1.40;0.60;;;20.40;38.10;;;;;;5007941;28;20029;-57
2024/01/01 05:00:36;;;;;;;1.77;0.68;;;20.40;38.10;;;;;;5005913;28;20034;-59
2024/01/01 05:03:02;;;;;;;2.50;0.68;;;20.40;38.00;;;;;;5005650;28;20093;-55
2024/01/01 05:05:28;;;;;;;1.88;0.70;;;20.40;38.10;;;;;;5002267;28;20430;-56
2024/01/01 05:07:54;;;;;;;2.15;0.90;;;20.30;38.00;;;;;;5001122;28;20109;-59
2024/01/01 05:10:20;;;;;;;2.00;0.70;;;20.30;38.00;;;;;;4995135;28;20065;-59
2024/01/01 05:12:45;;;;;;;2.55;0.85;;;20.30;38.00;;;;;;5006372;28;20153;-57
2024/01/01 05:15:12;;;;;;;2.28;0.77;;;20.30;38.00;;;;;;5004906;28;20447;-58
2024/01/01 05:17:37;;;;;;;0.93;0.50;;;20.30;38.00;;;;;;5006065;28;20080;-58
2024/01/01 05:20:04;;;;;;;1.55;0.65;;;20.30;38.00;;;;;;5004793;28;20022;-58
2024/01/01 05:22:30;;;;;;;0.80;0.50;;;20.30;38.00;;;;;;5002092;28;20022;-59
2024/01/01 05:24:56;;;;;;;1.50;0.63;;;20.30;38.00;;;;;;5000999;28;20044;-58
2024/01/01 05:27:22;;;;;;;2.25;0.60;;;20.30;38.00;;;;;;5006299;28;20022;-59
2024/01/01 05:29:48;;;;;;;1.00;0.43;;;20.30;38.00;;;;;;5003782;28;20453;-58
2024/01/01 05:32:15;;;;;;;2.38;0.80;;;20.30;38.00;;;;;;4998462;28;20049;-59
2024/01/01 05:34:43;;;;;;;2.55;0.93;;;20.30;38.00;;;;;;5003528;28;20034;-59
2024/01/01 05:37:09;;;;;;;1.13;0.47;;;20.30;38.00;;;;;;5004277;28;20345;-57
2024/01/01 05:39:35;;;;;;;2.28;0.80;;;20.30;38.00;;;;;;5007781;28;20026;-59
2024/01/01 05:42:01;;;;;;;1.83;0.80;;;20.30;38.10;;;;;;5001595;28;20093;-58
2024/01/01 05:44:27;;;;;;;2.47;0.90;;;20.30;38.10;;;;;;5002190;28;20035;-59
2024/01/01 05:46:53;;;;;;;2.45;1.00;;;20.30;38.10;;;;;;5001865;28;20041;-60
2024/01/01 05:49:19;;;;;;;1.35;0.63;;;20.30;38.10;;;;;;5006894;28;20030;-60
2024/01/01 05:51:45;;;;;;;1.38;0.60;;;20.30;38.10;;;;;;5001444;28;20357;-59
2024/01/01 05:54:11;;;;;;;1.45;0.55;;;20.30;38.10;;;;;;5002961;28;20027;-57
2024/01/01 05:56:37;;;;;;;1.77;0.50;;;20.30;38.10;;;;;;5007776;28;20096;-59
2024/01/01 05:59:03;;;;;;;2.10;0.60;;;20.30;38.10;;;;;;5003385;28;20037;-58
2024/01/01 06:01:29;;;;;;;1.33;0.50;;;20.30;38.10;;;;;;5002504;28;20106;-59
2024/01/01 06:03:55;;;;;;;1.63;0.65;;;20.20;38.00;;;;;;4997413;28;20331;-56
2024/01/01 06:06:24;;;;;;;1.80;0.68;;;20.30;38.10;;;;;;5000169;28;20026;-58
2024/01/01 06:08:50;;;;;;;2.45;0.63;;;20.20;38.10;;;;;;5006810;28;20026;-58
2024/01/01 06:11:16;;;;;;;1.60;0.70;;;20.20;38.10;;;;;;5008055;28;20076;-59
2024/01/01 06:13:43;;;;;;;1.17;0.52;;;20.30;38.10;;;;;;5004426;28;20036;-59
2024/01/01 06:16:09;;;;;;;1.60;0.50;;;20.20;38.10;;;;;;5001018;28;20041;-55
2024/01/01 06:18:34;;;;;;;1.50;0.68;;;20.30;38.10;;;;;;4998910;28;20389;-57
2024/01/01 06:21:00;;;;;;;1.42;0.65;;;20.20;38.10;;;;;;5004419;28;20048;-55
2024/01/01 06:23:26;;;;;;;1.13;0.70;;;20.20;38.10;;;;;;5009854;28;20022;-57
2024/01/01 06:25:52;;;;;;;1.58;0.60;;;20.20;38.10;;;;;;4995620;28;20323;-59
2024/01/01 06:28:18;;;;;;;1.35;0.50;;;20.20;38.10;;;;;;5008646;28;20042;-60
2024/01/01 06:30:44;;;;;;;1.92;0.60;;;20.20;38.10;;;;;;4996671;28;20038;-57
2024/01/01 06:33:10;;;;;;;1.13;0.40;;;20.20;38.10;;;;;;5000805;28;20038;-56
2024/01/01 06:35:37;;;;;;;1.15;0.60;;;20.20;38.10;;;;;;4999602;28;20050;-57
2024/01/01 06:38:03;;;;;;;1.25;0.50;;;20.20;38.70;;;;;;5003675;28;20044;-56
2024/01/01 06:40:29;;;;;;;2.58;0.70;;;20.20;38.10;;;;;;5001831;28;20089;-57
2024/01/01 06:42:55;;;;;;;2.03;0.80;;;20.20;38.10;;;;;;4998297;28;20018;-57
2024/01/01 06:45:21;;;;;;;1.30;0.60;;;20.20;38.10;;;;;;5002020;28;20369;-60
2024/01/01 06:47:48;;;;;;;2.45;0.70;;;20.20;38.20;;;;;;5002295;28;20026;-58
2024/01/01 06:50:14;;;;;;;1.67;0.60;;;20.20;38.20;;;;;;5004643;28;20346;-59
2024/01/01 06:52:40;;;;;;;1.70;0.70;;;20.20;38.20;;;;;;5005596;28;20033;-58
2024/01/01 06:55:06;;;;;;;1.27;0.60;;;20.10;38.10;;;;;;5000806;28;20450;-56
2024/01/01 06:57:33;;;;;;;2.42;0.80;;;20.20;38.20;;;;;;5012052;28;20025;-59
2024/01/01 06:59:58;;;;;;;1.58;0.57;;;20.10;38.20;;;;;;5000903;28;20030;-56
2024/01/01 07:02:27;;;;;;;2.03;0.52;;;20.20;38.20;;;;;;5000574;28;20029;-59
2024/01/01 07:04:53;;;;;;;1.17;0.70;;;20.20;38.20;;;;;;5000273;28;20025;-58
2024/01/01 07:07:19;;;;;;;1.33;0.45;;;20.10;38.10;;;;;;4997460;28;20053;-56
2024/01/01 07:09:44;;;;;;;1.40;0.73;;;20.10;38.10;;;;;;5001766;28;20038;-59
2024/01/01 07:12:18;;;;;;;3.38;0.70;;;20.20;38.20;;;;;;5014719;28;20046;-58
2024/01/01 07:14:45;;;;;;;1.90;0.70;;;20.10;38.20;;;;;;5014936;28;20331;-59
2024/01/01 07:17:11;;;;;;;0.98;0.45;;;20.10;38.20;;;;;;5003941;28;20030;-58
2024/01/01 07:19:36;;;;;;;1.90;0.60;;;20.10;38.20;;;;;;5005998;28;20114;-63
2024/01/01 07:22:02;;;;;;;2.22;0.60;;;20.10;38.20;;;;;;5008975;28;20030;-58
2024/01/01 07:24:29;;;;;;;2.30;0.50;;;20.10;38.20;;;;;;5010924;28;20414;-60
2024/01/01 07:26:55;;;;;;;2.40;0.80;;;20.10;38.20;;;;;;5006627;28;20030;-60
2024/01/01 07:29:20;;;;;;;1.35;0.65;;;20.10;38.20;;;;;;5011327;28;20509;-58
2024/01/01 07:31:46;;;;;;;2.80;0.57;;;20.10;38.30;;;;;;5007630;28;20030;-55
2024/01/01 07:34:15;;;;;;;2.13;0.50;;;20.10;38.30;;;;;;5005235;28;20041;-58
2024/01/01 07:36:42;;;;;;;1.48;0.60;;;20.10;38.30;;;;;;5001898;28;20026;-55
2024/01/01 07:39:08;;;;;;;2.67;0.73;;;20.10;38.30;;;;;;5001614;28;20041;-59
2024/01/01 07:41:34;;;;;;;1.58;0.70;;;20.10;38.30;;;;;;5002242;28;20025;-59
2024/01/01 07:43:59;;;;;;;1.92;1.00;;;20.10;38.40;;;;;;5010728;28;20026;-55
2024/01/01 07:46:25;;;;;;;1.85;0.70;;;20.10;38.40;;;;;;5000234;28;20041;-57
2024/01/01 07:48:51;;;;;;;2.00;0.80;;;20.10;38.40;;;;;;4997604;28;20103;-58
2024/01/01 07:51:17;;;;;;;1.70;0.80;;;20.10;38.40;;;;;;4998515;28;20049;-56
2024/01/01 07:53:43;;;;;;;2.28;1.10;;;20.10;38.40;;;;;;5010872;28;20034;-57
2024/01/01 07:56:09;;;;;;;2.50;1.00;;;20.10;38.40;;;;;;4998619;28;20026;-58
2024/01/01 07:58:35;;;;;;;2.45;0.85;;;20.10;38.40;;;;;;5006378;28;20033;-57
2024/01/01 08:01:01;;;;;;;2.25;0.80;;;20.10;38.40;;;;;;5012755;28;20034;-56
2024/01/01 08:03:27;;;;;;;2.88;1.08;;;20.10;38.50;;;;;;5009566;28;20049;-57
2024/01/01 08:05:53;;;;;;;1.52;0.80;;;20.10;38.50;;;;;;5009916;28;20116;-54
2024/01/01 08:08:19;;;;;;;3.13;0.73;;;20.10;38.40;;;;;;5005437;28;20021;-54
2024/01/01 08:10:44;;;;;;;1.67;0.80;;;20.10;38.50;;;;;;5014746;28;20049;-57
2024/01/01 08:13:10;;;;;;;2.60;0.85;;;20.10;38.50;;;;;;5006682;28;20034;-60
2024/01/01 08:15:36;;;;;;;1.60;0.60;;;20.10;38.50;;;;;;4994460;28;20034;-59
2024/01/01 08:18:03;;;;;;;1.52;0.77;;;20.10;38.50;;;;;;5000897;28;20054;-62
2024/01/01 08:20:29;;;;;;;2.67;0.90;;;20.00;38.50;;;;;;5005076;28;20127;-58
2024/01/01 08:22:55;;;;;;;2.17;0.93;;;20.00;38.50;;;;;;5009845;28;20022;-58
2024/01/01 08:25:21;;;;;;;1.10;0.50;;;20.00;38.60;;;;;;5001775;28;20030;-58
2024/01/01 08:27:47;;;;;;;2.17;0.50;;;20.00;38.60;;;;;;4995984;28;20085;-59
2024/01/01 08:30:13;;;;;;;1.55;0.60;;;20.10;38.70;;;;;;5010236;28;20112;-58
2024/01/01 08:32:39;;;;;;;1.42;0.55;;;20.00;38.70;;;;;;4989451;28;20041;-59
2024/01/01 08:35:05;;;;;;;1.40;0.65;;;20.00;38.70;;;;;;4995916;28;20030;-58
2024/01/01 08:37:31;;;;;;;2.08;0.80;;;20.00;38.70;;;;;;4996687;28;20445;-62
2024/01/01 08:39:57;;;;;;;2.25;0.63;;;20.00;38.70;;;;;;5003148;28;20026;-58
2024/01/01 08:42:22;;;;;;;2.15;0.73;;;20.00;38.80;;;;;;5007110;28;20437;-58
2024/01/01 08:44:49;;;;;;;1.58;0.70;;;20.10;38.80;;;;;;5005040;28;20030;-58
2024/01/01 08:47:18;;;;;;;1.92;0.80;;;20.00;38.80;;;;;;5004514;28;20102;-60
2024/01/01 08:49:44;;;;;;;2.10;0.90;;;20.00;38.80;;;;;;4996848;28;20110;-55
2024/01/01 08:52:10;;;;;;;2.10;0.70;;;20.00;38.80;;;;;;5015627;28;20021;-59
2024/01/01 08:54:37;;;;;;;1.80;0.55;;;20.00;38.90;;;;;;5011083;28;20041;-59
2024/01/01 08:57:03;;;;;;;1.95;0.70;;;20.00;38.90;;;;;;4996369;28;20088;-58
2024/01/01 08:59:29;;;;;;;4.45;2.13;;;20.00;38.90;;;;;;4995492;28;20460;-57
2024/01/01 09:01:55;;;;;;;7.30;3.50;;;20.00;38.90;;;;;;4994633;28;20058;-60
2024/01/01 09:04:21;;;;;;;9.05;5.00;;;20.10;39.00;;;;;;4994878;28;20345;-60
2024/01/01 09:06:47;;;;;;;6.10;3.35;;;20.00;39.00;;;;;;4991424;28;20042;-62
2024/01/01 09:09:13;;;;;;;6.45;3.13;;;20.10;39.00;;;;;;4990268;28;20109;-60
2024/01/01 09:11:39;;;;;;;6.72;3.22;;;20.10;39.10;;;;;;4987716;28;20569;-59
2024/01/01 09:14:05;;;;;;;5.15;2.70;;;20.10;39.10;;;;;;4994537;28;20101;-59
2024/01/01 09:16:31;;;;;;;4.75;2.75;;;20.10;39.10;;;;;;4991606;28;20125;-55
2024/01/01 09:18:59;;;;;;;3.70;2.05;;;20.10;39.00;;;;;;4995724;28;20030;-57
2024/01/01 09:21:26;;;;;;;3.63;2.05;;;20.20;39.00;;;;;;4994840;28;20045;-57
2024/01/01 09:23:59;;;;;;;3.40;1.98;;;20.20;39.00;;;;;;4996306;28;20040;-59
2024/01/01 09:26:25;;;;;;;3.88;2.03;;;20.30;39.60;;;;;;4996041;28;20450;-58
2024/01/01 09:28:50;;;;;;;5.00;2.53;;;20.30;39.00;;;;;;4994652;28;20054;-59
2024/01/01 09:31:16;;;;;;;4.90;2.47;;;20.40;39.60;;;;;;4998246;28;20057;-59
2024/01/01 09:33:42;;;;;;;4.65;2.17;;;20.40;39.00;;;;;;4994894;28;20030;-57
2024/01/01 09:36:08;;;;;;;5.35;2.58;;;20.50;39.00;;;;;;4994657;28;20045;-59
2024/01/01 09:38:34;;;;;;;6.28;2.53;;;20.60;39.60;;;;;;4994546;28;20027;-58
2024/01/01 09:41:00;;;;;;;5.97;2.63;;;20.60;38.90;;;;;;4994490;28;20314;-54
2024/01/01 09:43:26;;;;;;;5.35;2.65;;;20.70;38.90;;;;;;4994419;28;20027;-59
2024/01/01 09:45:51;;;;;;;4.32;2.33;;;20.80;38.80;;;;;;4993998;28;20344;-58
2024/01/01 09:48:17;;;;;;;6.25;2.67;;;20.90;38.80;;;;;;4994368;28;20030;-56
2024/01/01 09:50:43;;;;;;;5.20;2.17;;;20.90;38.80;;;;;;4995079;28;20062;-59
2024/01/01 09:53:10;;;;;;;5.05;2.30;;;21.00;38.70;;;;;;4995668;28;20084;-59
2024/01/01 09:55:38;;;;;;;6.53;2.50;;;21.10;38.70;;;;;;5005438;28;20573;-59
2024/01/01 09:58:04;;;;;;;5.05;2.55;;;21.20;38.70;;;;;;4999781;28;20046;-58
2024/01/01 10:00:29;;;;;;;5.47;2.17;;;21.20;38.60;;;;;;5002107;28;20449;-59
2024/01/01 10:03:07;;;;;;;5.13;2.50;;;21.30;38.60;;;;;;5007484;28;20364;-58
2024/01/01 10:05:32;;;;;;;4.03;1.88;;;21.40;38.60;;;;;;4985161;28;20027;-60
2024/01/01 10:08:08;;;;;;;5.25;2.40;;;21.40;38.50;;;;;;4996024;28;20464;-59
2024/01/01 10:10:34;;;;;;;4.68;1.98;;;21.50;38.40;;;;;;4995087;28;20361;-60
2024/01/01 10:13:14;;;;;;;3.38;1.75;;;21.60;38.40;;;;;;4995403;28;20037;-58
2024/01/01 10:15:41;;;;;;;3.70;1.65;;;21.70;38.40;;;;;;5000731;28;20022;-60
2024/01/01 10:18:14;;;;;;;4.50;1.90;;;21.70;38.30;;;;;;5002393;28;20028;-60
2024/01/01 10:20:43;;;;;;;3.13;1.50;;;21.80;38.20;;;;;;4999646;28;20357;-59
2024/01/01 10:23:21;;;;;;;3.00;1.30;;;21.80;38.20;;;;;;5001072;28;20034;-61
2024/01/01 10:25:49;;;;;;;3.83;1.70;;;21.90;38.10;;;;;;5001900;28;20023;-66
2024/01/01 10:28:16;;;;;;;2.80;1.38;;;22.00;38.10;;;;;;4999610;28;20036;-59
2024/01/01 10:30:47;;;;;;;4.15;1.58;;;22.00;38.10;;;;;;5003690;28;20045;-60
2024/01/01 10:33:17;;;;;;;2.85;1.33;;;22.10;38.10;;;;;;4997676;28;20450;-59
2024/01/01 10:35:43;;;;;;;3.85;1.17;;;22.10;38.10;;;;;;5003165;28;20116;-59
2024/01/01 10:38:14;;;;;;;3.22;1.50;;;22.20;38.10;;;;;;5000795;28;20034;-59
2024/01/01 10:40:40;;;;;;;2.47;1.27;;;22.20;38.10;;;;;;4998513;28;20029;-61
2024/01/01 10:43:08;;;;;;;3.05;1.52;;;22.30;38.10;;;;;;4996498;28;20041;-60
2024/01/01 10:45:34;;;;;;;3.35;1.30;;;22.30;38.00;;;;;;5001834;28;20397;-60
2024/01/01 10:48:04;;;;;;;2.78;1.30;;;22.30;38.00;;;;;;5005499;28;20049;-59
2024/01/01 10:50:32;;;;;;;3.50;1.75;;;22.40;38.00;;;;;;5000966;28;20105;-59
2024/01/01 10:53:30;;;;;;;3.15;1.30;;;22.40;37.90;;;;;;5001340;28;20117;-58
2024/01/01 10:56:25;;;;;;;3.80;1.27;;;22.50;37.90;;;;;;5003094;28;20038;-60
2024/01/01 10:59:16;;;;;;;3.60;1.20;;;22.50;37.90;;;;;;4996750;28;20085;-63
2024/01/01 11:01:43;;;;;;;2.47;1.10;;;22.60;38.00;;;;;;5004100;28;20036;-60
2024/01/01 11:04:12;;;;;;;3.22;1.08;;;22.60;38.00;;;;;;4999736;28;20030;-61
2024/01/01 11:06:43;;;;;;;1.98;1.02;;;22.60;38.00;;;;;;5010071;28;20449;-61
2024/01/01 11:09:21;;;;;;;2.33;1.02;;;22.70;38.10;;;;;;4998389;28;20445;-58
2024/01/01 11:11:53;;;;;;;2.45;0.90;;;22.70;38.10;;;;;;5003960;28;20076;-60
2024/01/01 11:14:42;;;;;;;1.85;0.85;;;22.80;38.20;;;;;;5006387;28;20418;-61
2024/01/01 11:17:09;;;;;;;2.65;1.10;;;22.80;38.10;;;;;;5000742;28;20454;-62
2024/01/01 11:19:46;;;;;;;2.85;1.10;;;22.80;38.10;;;;;;5005952;28;20081;-62
2024/01/01 11:22:23;;;;;;;2.03;0.75;;;22.80;38.10;;;;;;5002014;28;20465;-61
2024/01/01 11:24:50;;;;;;;1.73;0.80;;;22.90;38.20;;;;;;5006906;28;20037;-61
2024/01/01 11:27:32;;;;;;;1.67;0.80;;;22.90;38.30;;;;;;5007352;28;20038;-62
2024/01/01 11:30:06;;;;;;;1.88;0.90;;;22.90;38.20;;;;;;5001889;28;20533;-60
2024/01/01 11:32:34;;;;;;;;;;;22.90;38.20;;;;;;5008159;28;20025;-58
2024/01/01 11:35:12;;;;;;;1.40;0.55;;;22.90;38.30;;;;;;5015923;28;19920;-58
2024/01/01 11:37:40;;;;;;;1.70;0.90;;;22.90;38.30;;;;;;5000046;28;20026;-59
2024/01/01 11:40:09;;;;;;;1.80;0.73;;;22.90;38.30;;;;;;5006557;28;20112;-59
2024/01/01 11:42:37;;;;;;;2.13;0.85;;;22.90;38.30;;;;;;5005340;28;20349;-61
2024/01/01 11:45:17;;;;;;;2.45;0.80;;;22.90;39.00;;;;;;5005369;28;20025;-64
2024/01/01 11:47:43;;;;;;;2.38;1.08;;;22.90;38.30;;;;;;5003030;28;20034;-65
2024/01/01 11:50:10;;;;;;;1.92;0.70;;;22.90;38.30;;;;;;5011748;28;20449;-64
2024/01/01 11:52:38;;;;;;;2.33;0.70;;;22.90;38.30;;;;;;5000743;28;20030;-64
2024/01/01 11:55:04;;;;;;;1.40;0.70;;;22.90;38.30;;;;;;5001105;28;20026;-65
2024/01/01 11:57:30;;;;;;;2.25;0.52;;;22.90;38.30;;;;;;4984661;28;20041;-62
2024/01/01 11:59:56;;;;;;;1.45;0.68;;;22.90;38.30;;;;;;5001843;28;20033;-63
2024/01/01 12:02:23;;;;;;;2.75;0.73;;;22.90;38.30;;;;;;5006837;28;20112;-66
2024/01/01 12:04:54;;;;;;;1.33;0.80;;;22.90;38.30;;;;;;5004766;28;20054;-62
2024/01/01 12:07:27;;;;;;;3.88;1.02;;;22.90;38.20;;;;;;4996300;28;20038;-64
2024/01/01 12:10:06;;;;;;;2.42;1.02;;;22.90;38.20;;;;;;4998571;28;20045;-59
2024/01/01 12:12:39;;;;;;;1.58;0.70;;;22.90;38.10;;;;;;5003370;28;20042;-60
2024/01/01 12:15:09;;;;;;;2.03;0.70;;;22.90;38.10;;;;;;5000317;28;20030;-57
2024/01/01 12:17:48;;;;;;;1.73;0.60;;;22.90;38.00;;;;;;5003249;28;20405;-57
2024/01/01 12:20:18;;;;;;;1.73;0.88;;;22.80;37.90;;;;;;4999320;28;20034;-60
2024/01/01 12:22:45;;;;;;;1.65;1.00;;;22.80;37.90;;;;;;4989756;28;20030;-60
2024/01/01 12:25:18;;;;;;;4.38;0.77;;;22.80;37.80;;;;;;4979746;28;20031;-60
2024/01/01 12:27:59;;;;;;;1.70;0.80;;;22.80;37.80;;;;;;4978559;28;20035;-60
2024/01/01 12:30:27;;;;;;;2.58;0.85;;;22.70;37.70;;;;;;4990710;28;20496;-59
2024/01/01 12:32:54;;;;;;;1.73;0.60;;;22.70;37.70;;;;;;4990458;28;20054;-60
2024/01/01 12:35:19;;;;;;;1.42;0.57;;;22.70;37.70;;;;;;4986663;28;20095;-60
2024/01/01 12:37:47;;;;;;;1.55;0.60;;;22.70;37.60;;;;;;4981883;28;20481;-57
2024/01/01 12:40:14;;;;;;;1.63;0.60;;;22.70;37.60;;;;;;4986291;28;20070;-62
2024/01/01 12:42:40;;;;;;;1.20;0.60;;;22.70;37.50;;;;;;4989395;28;20037;-60
2024/01/01 12:45:06;;;;;;;1.92;0.60;;;22.70;37.50;;;;;;4991556;28;20101;-61
2024/01/01 12:47:32;;;;;;;1.65;0.60;;;22.70;37.50;;;;;;4990882;28;20033;-60